Aurora Springs, Missouri
Current Conditions -  °F | °C
As of 3:35 PM on Thursday 23 Oct 2014 (Local Time) from KAIZ Reporting Station
Overcast Overcast  
Wind Chill: 63°   Ceiling: 7000
Heat Index: 63°   Visibility: 10mi
Dew Point: 52°   Wind: 6mph
Humidity: 68%   Direction: 190°S
Pressure: 30.1"   Gusts: NA
Location:  38.333°N, 92.5524°W
Report Text: KAIZ 232035Z AUTO 19005KT 10SM FEW050 BKN070 OVC090 17/11 A3010 RMK AO1
Loading
Personal Weather Stations






























Interactive Weather Map New forecast layout! Learn more

10-Day Weather Forecast

Advertisements
Track Severe Weather on mobile